Altoona, Iowa
Current Conditions -  °F | °C
As of 7:15 AM on Sunday 23 Nov 2014 (Local Time) from KIKV Reporting Station
Overcast Overcast  
Wind Chill: 11°   Ceiling: 600
Heat Index: 11°   Visibility: 10mi
Dew Point: 11°   Wind: 14mph
Humidity: 100%   Direction: 170°S
Pressure: 29.52"   Gusts: NA
Location:  41.64°N, 93.46°W
Report Text: KIKV 231315Z AUTO 17012KT 10SM OVC006 11/11 A2952 RMK AO2
Loading
Personal Weather Stations






























Interactive Weather Map New forecast layout! Learn more

10-Day Weather Forecast

Advertisements
Track Severe Weather on mobile